Time;durP1;ratioP1;P1;durP2;ratioP2;P2;SDS_P1;SDS_P2;PMS_P1;PMS_P2;Temp;Humidity;BMP_temperature;BMP_pressure;BME280_temperature;BME280_humidity;BME280_pressure;Samples;Min_cycle;Max_cycle;Signal;HPM_P1;HPM_P2
2022/10/11 00:01:40;;;;;;;17.87;16.07;;;;;;;14.26;78.46;93460.38;5070381;28;20185;-74
2022/10/11 00:04:05;;;;;;;17.77;16.27;;;;;;;14.13;78.67;93459.19;5067924;28;20245;-74
2022/10/11 00:06:30;;;;;;;18.20;16.20;;;;;;;14.08;78.75;93448.75;5069792;28;20245;-74
2022/10/11 00:08:56;;;;;;;17.10;15.50;;;;;;;14.13;79.07;93467.06;5069104;28;20249;-74
2022/10/11 00:11:21;;;;;;;18.17;15.20;;;;;;;14.01;81.81;93468.50;5069665;28;20201;-74
2022/10/11 00:13:47;;;;;;;18.07;16.23;;;;;;;13.94;81.68;93462.81;5068950;28;20276;-74
2022/10/11 00:16:14;;;;;;;17.63;15.97;;;;;;;14.02;80.47;93462.22;5069230;28;20193;-74
2022/10/11 00:18:39;;;;;;;17.10;15.47;;;;;;;13.79;79.73;93424.34;5068834;28;20292;-74
2022/10/11 00:21:07;;;;;;;17.67;16.10;;;;;;;14.07;79.49;93454.28;5069897;28;20223;-74
2022/10/11 00:23:33;;;;;;;17.23;15.43;;;;;;;13.97;80.98;93460.41;5069490;28;20233;-74
2022/10/11 00:26:01;;;;;;;17.50;15.80;;;;;;;13.97;81.48;93457.78;5067705;28;20220;-73
2022/10/11 00:28:26;;;;;;;18.47;16.10;;;;;;;13.60;83.15;93433.22;5068127;28;20209;-74
2022/10/11 00:30:52;;;;;;;18.23;16.40;;;;;;;13.80;83.24;93462.69;5070104;28;20220;-74
2022/10/11 00:33:17;;;;;;;18.20;16.50;;;;;;;13.78;83.49;93448.25;5068857;28;20239;-75
2022/10/11 00:35:43;;;;;;;17.17;15.63;;;;;;;13.66;84.53;93451.28;5068416;28;20224;-73
2022/10/11 00:38:08;;;;;;;16.83;15.30;;;;;;;13.66;85.07;93451.28;5069282;28;20229;-74
2022/10/11 00:40:34;;;;;;;17.87;15.97;;;;;;;13.49;86.47;93456.16;5069239;28;20190;-74
2022/10/11 00:42:59;;;;;;;18.00;16.30;;;;;;;13.39;85.61;93440.47;5068593;28;20232;-75
2022/10/11 00:45:24;;;;;;;16.03;14.53;;;;;;;13.50;86.09;93451.66;5069781;28;20251;-75
2022/10/11 00:47:50;;;;;;;19.30;17.40;;;;;;;13.50;85.96;93451.66;5068412;28;20209;-74
2022/10/11 00:50:18;;;;;;;18.80;17.00;;;;;;;13.39;86.83;93456.22;5069154;28;20185;-74
2022/10/11 00:52:50;;;;;;;18.00;16.40;;;;;;;13.22;88.38;93434.03;5069090;28;20287;-74
2022/10/11 00:55:19;;;;;;;17.90;16.10;;;;;;;13.24;88.36;93443.22;5069491;28;20192;-74
2022/10/11 00:57:48;;;;;;;17.73;16.00;;;;;;;13.25;86.62;93428.25;5068893;28;20182;-75
2022/10/11 01:00:15;;;;;;;20.37;18.27;;;;;;;13.26;87.44;93441.09;5069355;28;20249;-73
2022/10/11 01:02:41;;;;;;;20.53;18.30;;;;;;;13.28;85.95;93435.56;5067804;28;20181;-75
2022/10/11 01:05:10;;;;;;;26.33;18.00;;;;;;;13.16;85.65;93424.66;5067017;28;20217;-74
2022/10/11 01:07:36;;;;;;;20.30;18.20;;;;;;;13.17;85.97;93439.34;5068647;28;20213;-75
2022/10/11 01:10:02;;;;;;;21.30;18.83;;;;;;;13.21;86.04;93449.00;5069190;28;20181;-75
2022/10/11 01:12:30;;;;;;;22.07;19.67;;;;;;;13.03;87.06;93448.88;5069313;28;20204;-75
2022/10/11 01:15:24;;;;;;;24.03;20.40;;;;;;;12.87;87.87;93435.84;5068833;28;20217;-74
2022/10/11 01:18:24;;;;;;;24.27;19.13;;;;;;;12.74;89.06;93439.06;5068113;28;20190;-75
2022/10/11 01:21:01;;;;;;;21.17;18.90;;;;;;;12.71;89.64;93433.59;5067118;28;20197;-74
2022/10/11 01:23:39;;;;;;;21.30;19.20;;;;;;;12.66;89.76;93442.25;5068590;28;20228;-74
2022/10/11 01:26:46;;;;;;;21.63;19.07;;;;;;;12.65;89.68;93439.91;5084828;28;20189;-74
2022/10/11 01:29:24;;;;;;;25.50;20.20;;;;;;;12.60;90.63;93437.31;5066702;28;20217;-74
2022/10/11 01:31:58;;;;;;;20.30;17.80;;;;;;;12.56;91.52;93428.44;5069246;28;20791;-74
2022/10/11 01:34:48;;;;;;;21.53;19.33;;;;;;;12.50;92.21;93429.50;5068446;28;20225;-74
2022/10/11 01:37:23;;;;;;;22.67;19.73;;;;;;;12.48;91.93;93427.13;5066798;28;20189;-74
2022/10/11 01:40:09;;;;;;;25.27;19.30;;;;;;;12.48;92.72;93434.22;5082915;28;20232;-75
2022/10/11 01:42:38;;;;;;;24.90;19.43;;;;;;;12.36;92.81;93423.28;5072128;28;20193;-76
2022/10/11 01:45:06;;;;;;;21.00;18.73;;;;;;;12.42;92.56;93430.06;5071352;28;20190;-74
2022/10/11 01:47:32;;;;;;;21.97;19.53;;;;;;;12.34;92.67;93425.41;5071838;28;20213;-74
2022/10/11 01:49:59;;;;;;;22.20;19.63;;;;;;;12.42;92.39;93435.31;5071735;28;20252;-74
2022/10/11 01:52:31;;;;;;;21.67;19.43;;;;;;;12.42;92.32;93430.84;5072505;28;20209;-74
2022/10/11 01:55:11;;;;;;;20.47;18.33;;;;;;;12.37;92.61;93427.47;5071209;28;20255;-74
2022/10/11 01:57:42;;;;;;;20.83;18.57;;;;;;;12.36;93.55;93436.38;5072489;28;20197;-74
2022/10/11 02:00:38;;;;;;;22.53;18.23;;;;;;;12.28;93.35;93427.25;5070952;28;20264;-74
2022/10/11 02:03:06;;;;;;;21.30;17.53;;;;;;;12.16;94.49;93433.81;5071527;28;20237;-74
2022/10/11 02:05:40;;;;;;;21.77;19.47;;;;;;;12.20;94.24;93427.03;5072178;28;20189;-74
2022/10/11 02:08:08;;;;;;;24.37;20.00;;;;;;;12.31;93.08;93420.69;5069643;28;20273;-74
2022/10/11 02:10:48;;;;;;;23.23;18.63;;;;;;;12.07;94.82;93417.13;5071798;28;20237;-73
2022/10/11 02:13:38;;;;;;;22.63;18.63;;;;;;;12.00;95.28;93427.88;5071920;28;20229;-74
2022/10/11 02:16:09;;;;;;;25.93;19.23;;;;;;;12.13;95.01;93426.50;5086516;28;20335;-74
2022/10/11 02:18:40;;;;;;;22.73;18.93;;;;;;;12.08;95.26;93419.47;5070804;28;20229;-74
2022/10/11 02:21:09;;;;;;;20.33;18.23;;;;;;;12.01;95.69;93410.34;5070675;28;20260;-74
2022/10/11 02:24:07;;;;;;;20.70;17.77;;;;;;;12.03;95.49;93410.84;5070701;28;20434;-74
2022/10/11 02:26:33;;;;;;;18.60;16.80;;;;;;;12.05;94.93;93406.91;5071499;28;20217;-74
2022/10/11 02:29:03;;;;;;;19.97;17.90;;;;;;;12.18;94.54;93423.88;5071490;28;20221;-74
2022/10/11 02:31:32;;;;;;;20.40;17.53;;;;;;;12.16;94.59;93415.50;5071627;28;20197;-74
2022/10/11 02:34:16;;;;;;;23.00;18.63;;;;;;;11.87;96.08;93411.94;5069752;28;20239;-74
2022/10/11 02:36:56;;;;;;;18.67;16.87;;;;;;;11.83;96.97;93410.94;5071063;28;20248;-74
2022/10/11 02:39:33;;;;;;;18.37;16.47;;;;;;;11.75;97.58;93401.00;5071452;28;20225;-74
2022/10/11 02:42:04;;;;;;;19.13;17.33;;;;;;;11.85;97.08;93408.81;5070676;28;20189;-74
2022/10/11 02:44:39;;;;;;;18.67;16.77;;;;;;;11.92;97.06;93410.09;5070760;28;20225;-74
2022/10/11 02:47:06;;;;;;;19.97;18.07;;;;;;;11.75;97.41;93408.84;5070346;28;20195;-74
2022/10/11 02:49:32;;;;;;;18.87;17.10;;;;;;;11.65;98.47;93414.09;5071306;28;20276;-74
2022/10/11 02:51:58;;;;;;;19.33;17.53;;;;;;;11.72;98.59;93414.63;5071183;28;20185;-74
2022/10/11 02:54:24;;;;;;;18.23;16.53;;;;;;;11.76;98.74;93407.78;5070996;28;20221;-74
2022/10/11 02:56:50;;;;;;;18.83;17.07;;;;;;;11.79;98.29;93404.66;5071250;28;20236;-74
2022/10/11 02:59:15;;;;;;;19.23;17.33;;;;;;;11.76;98.45;93405.19;5070809;28;20220;-74
2022/10/11 03:01:41;;;;;;;18.30;16.40;;;;;;;11.54;100.00;93405.47;5071792;28;20201;-74
2022/10/11 03:04:06;;;;;;;22.57;18.90;;;;;;;11.62;99.76;93393.66;5070436;28;20263;-74
2022/10/11 03:06:31;;;;;;;21.33;19.13;;;;;;;11.75;99.32;93403.63;5071147;28;20249;-74
2022/10/11 03:08:57;;;;;;;22.50;19.03;;;;;;;11.76;99.09;93394.72;5070721;28;20240;-74
2022/10/11 03:11:22;;;;;;;19.83;17.80;;;;;;;11.79;98.83;93396.78;5071078;28;20193;-74
2022/10/11 03:13:47;;;;;;;20.40;18.30;;;;;;;11.77;98.99;93404.13;5069836;28;20225;-74
2022/10/11 03:16:13;;;;;;;20.17;18.03;;;;;;;11.74;99.30;93404.66;5070871;28;20178;-73
2022/10/11 03:18:38;;;;;;;20.43;18.47;;;;;;;11.70;99.90;93401.81;5069414;28;20249;-74
2022/10/11 03:21:04;;;;;;;23.27;17.50;;;;;;;11.77;99.51;93391.03;5070741;28;20202;-73
2022/10/11 03:23:29;;;;;;;20.27;17.23;;;;;;;11.70;99.71;93393.97;5070276;28;20263;-74
2022/10/11 03:25:54;;;;;;;21.17;18.93;;;;;;;11.63;99.02;93379.56;5070956;28;20842;-74
2022/10/11 03:28:20;;;;;;;23.50;18.77;;;;;;;11.77;99.29;93396.25;5070397;28;20236;-74
2022/10/11 03:30:47;;;;;;;24.37;19.00;;;;;;;11.69;99.84;93392.38;5070866;28;20181;-74
2022/10/11 03:33:12;;;;;;;26.33;20.87;;;;;;;11.64;100.00;93391.63;5069872;28;20255;-74
2022/10/11 03:35:39;;;;;;;26.50;21.03;;;;;;;11.74;100.00;93394.19;5070827;28;20185;-74
2022/10/11 03:38:05;;;;;;;29.77;21.60;;;;;;;11.85;99.52;93393.09;5069945;28;20225;-74
2022/10/11 03:40:30;;;;;;;30.00;19.57;;;;;;;11.71;99.56;93392.09;5070979;28;20203;-74
2022/10/11 03:42:55;;;;;;;27.33;20.73;;;;;;;11.69;99.21;93368.06;5068480;28;20226;-74
2022/10/11 03:45:21;;;;;;;21.13;18.80;;;;;;;11.86;98.31;93373.75;5070263;28;20189;-74
2022/10/11 03:47:46;;;;;;;21.97;18.37;;;;;;;11.97;98.52;93391.00;5069317;28;20296;-74
2022/10/11 03:50:11;;;;;;;21.27;19.07;;;;;;;11.95;98.28;93372.94;5066935;28;20185;-75
2022/10/11 03:52:37;;;;;;;20.47;18.40;;;;;;;12.06;97.59;93381.53;5068656;28;20193;-75
2022/10/11 03:55:03;;;;;;;20.37;18.27;;;;;;;11.83;98.34;93374.31;5068787;28;20185;-75
2022/10/11 03:57:29;;;;;;;20.13;18.23;;;;;;;11.71;98.96;93366.75;5069053;28;20207;-74
2022/10/11 03:59:54;;;;;;;19.40;17.53;;;;;;;11.87;98.85;93357.81;5067612;28;20224;-74
2022/10/11 04:02:20;;;;;;;18.77;16.97;;;;;;;11.78;99.91;93376.94;5068040;28;20268;-73
2022/10/11 04:04:45;;;;;;;20.77;18.70;;;;;;;11.83;99.92;93379.53;5066533;28;20233;-72
2022/10/11 04:07:11;;;;;;;20.47;18.47;;;;;;;11.63;100.00;93377.75;5068046;28;20209;-73
2022/10/11 04:09:36;;;;;;;20.90;18.80;;;;;;;11.73;100.00;93369.09;5067876;28;20224;-72
2022/10/11 04:12:02;;;;;;;23.73;18.73;;;;;;;11.91;99.24;93381.56;5065472;28;20186;-74
2022/10/11 04:14:28;;;;;;;19.37;17.50;;;;;;;11.79;99.43;93373.25;5067582;28;20221;-72
2022/10/11 04:16:53;;;;;;;19.67;17.77;;;;;;;11.59;99.79;93354.97;5068809;28;20859;-70
2022/10/11 04:19:19;;;;;;;22.03;17.33;;;;;;;11.72;99.81;93370.16;5068170;28;20221;-71
2022/10/11 04:21:44;;;;;;;20.60;18.50;;;;;;;11.77;100.00;93383.97;5068773;28;20274;-73
2022/10/11 04:24:10;;;;;;;21.57;19.13;;;;;;;11.72;100.00;93378.75;5054898;28;20228;-73
2022/10/11 04:26:36;;;;;;;22.37;20.03;;;;;;;11.39;100.00;93332.28;5048247;28;20209;-76
2022/10/11 04:29:02;;;;;;;21.07;18.97;;;;;;;11.63;100.00;93363.88;5042464;28;20227;-76
2022/10/11 04:31:27;;;;;;;23.17;19.50;;;;;;;11.61;100.00;93368.56;5042800;28;20681;-74
2022/10/11 04:33:53;;;;;;;21.07;18.97;;;;;;;11.84;100.00;93383.69;5055557;28;20217;-74
2022/10/11 04:36:18;;;;;;;22.90;19.17;;;;;;;11.82;100.00;93388.41;5067817;28;20467;-74
2022/10/11 04:38:43;;;;;;;21.17;18.97;;;;;;;11.76;100.00;93365.94;5068990;28;20321;-73
2022/10/11 04:41:11;;;;;;;21.23;18.93;;;;;;;11.81;100.00;93379.81;5047887;28;20186;-73
2022/10/11 04:43:37;;;;;;;24.03;20.10;;;;;;;11.89;100.00;93378.47;5046495;28;20214;-72
2022/10/11 04:46:03;;;;;;;22.10;19.77;;;;;;;11.88;100.00;93382.91;5047694;28;20184;-72
2022/10/11 04:48:29;;;;;;;24.33;21.23;;;;;;;11.86;99.46;93373.75;5045224;28;20255;-72
2022/10/11 04:50:55;;;;;;;23.67;20.30;;;;;;;11.87;100.00;93385.78;5039740;28;20257;-72
2022/10/11 04:53:20;;;;;;;24.03;21.57;;;;;;;11.99;99.67;93383.63;5039268;28;20236;-72
2022/10/11 04:56:07;;;;;;;22.73;19.67;;;;;;;12.03;99.55;93385.44;5043996;28;20209;-72
2022/10/11 04:58:34;;;;;;;28.20;20.67;;;;;;;11.95;98.93;93372.16;5046800;28;20229;-72
2022/10/11 05:00:59;;;;;;;25.07;20.27;;;;;;;12.02;98.86;93377.88;5046144;28;20196;-71
2022/10/11 05:03:25;;;;;;;21.53;18.93;;;;;;;12.02;99.29;93393.56;5047950;28;20218;-72
2022/10/11 05:05:51;;;;;;;25.87;19.87;;;;;;;12.13;98.35;93384.63;5048531;28;20190;-73
2022/10/11 05:08:18;;;;;;;23.10;20.60;;;;;;;12.14;98.25;93383.59;5047392;28;20226;-74
2022/10/11 05:10:56;;;;;;;23.63;21.13;;;;;;;12.14;98.36;93388.84;5077865;28;20190;-72
2022/10/11 05:13:22;;;;;;;23.80;21.23;;;;;;;12.15;98.30;93383.34;5045950;28;20232;-73
2022/10/11 05:15:47;;;;;;;29.37;21.40;;;;;;;12.13;98.94;93389.88;5048961;28;20206;-73
2022/10/11 05:18:13;;;;;;;22.33;19.93;;;;;;;11.98;98.98;93380.25;5056732;28;21051;-73
2022/10/11 05:20:39;;;;;;;23.43;19.73;;;;;;;12.14;98.73;93397.44;5072172;28;20220;-73
2022/10/11 05:23:05;;;;;;;27.20;21.37;;;;;;;12.19;98.28;93388.78;5070587;28;20232;-72
2022/10/11 05:25:30;;;;;;;24.07;21.67;;;;;;;12.26;97.60;93400.56;5071259;28;20228;-73
2022/10/11 05:27:56;;;;;;;24.37;19.87;;;;;;;12.20;97.79;93399.00;5071175;28;20231;-73
2022/10/11 05:30:21;;;;;;;23.33;19.50;;;;;;;12.39;97.35;93407.06;5071508;28;20181;-71
2022/10/11 05:32:46;;;;;;;22.30;19.27;;;;;;;12.50;96.80;93408.53;5071494;28;20189;-69
2022/10/11 05:35:13;;;;;;;22.97;19.17;;;;;;;12.53;96.46;93405.38;5072131;28;20207;-72
2022/10/11 05:37:39;;;;;;;22.07;19.67;;;;;;;12.67;95.53;93408.97;5071652;28;20287;-73
2022/10/11 05:40:05;;;;;;;24.10;21.33;;;;;;;12.66;95.58;93410.03;5072356;28;20194;-72
2022/10/11 05:42:30;;;;;;;23.23;19.63;;;;;;;12.88;94.67;93423.53;5072103;28;20197;-71
2022/10/11 05:44:55;;;;;;;26.27;21.17;;;;;;;12.86;94.50;93426.41;5071433;28;20252;-74
2022/10/11 05:47:21;;;;;;;23.03;19.33;;;;;;;12.98;94.03;93427.91;5071011;28;20217;-74
2022/10/11 05:49:46;;;;;;;28.93;22.03;;;;;;;13.02;93.22;93419.25;5071469;28;20232;-75
2022/10/11 05:52:12;;;;;;;24.57;20.33;;;;;;;12.90;92.98;93410.94;5071812;28;20201;-75
2022/10/11 05:54:38;;;;;;;24.53;20.60;;;;;;;13.16;92.29;93441.19;5071505;28;20281;-75
2022/10/11 05:57:03;;;;;;;29.83;21.57;;;;;;;13.27;91.84;93431.41;5071000;28;20182;-74
2022/10/11 05:59:28;;;;;;;24.27;21.00;;;;;;;13.51;90.96;93429.63;5064539;28;20245;-74
2022/10/11 06:01:54;;;;;;;27.10;19.80;;;;;;;13.59;90.69;93419.31;5069951;28;20193;-73
2022/10/11 06:04:19;;;;;;;29.43;20.33;;;;;;;13.78;90.23;93433.31;5071555;28;20225;-74
2022/10/11 06:06:44;;;;;;;23.83;19.90;;;;;;;13.82;89.83;93426.44;5071373;28;20224;-73
2022/10/11 06:09:11;;;;;;;26.13;21.30;;;;;;;13.79;88.53;93408.59;5070632;28;20235;-75
2022/10/11 06:11:36;;;;;;;29.30;20.17;;;;;;;13.77;88.47;93412.59;5070898;28;20219;-75
2022/10/11 06:14:02;;;;;;;29.63;21.50;;;;;;;13.68;88.63;93420.25;5069877;28;20272;-73
2022/10/11 06:16:27;;;;;;;27.53;21.73;;;;;;;13.55;89.69;93410.44;5071208;28;20239;-74
2022/10/11 06:18:53;;;;;;;24.37;19.57;;;;;;;13.50;90.69;93410.47;5070552;28;20233;-73
2022/10/11 06:21:19;;;;;;;24.40;20.20;;;;;;;13.53;90.66;93420.41;5069744;28;20188;-74
2022/10/11 06:23:49;;;;;;;24.50;20.33;;;;;;;13.55;90.55;93413.06;5070371;28;20244;-74
2022/10/11 06:26:14;;;;;;;26.00;20.33;;;;;;;13.44;91.54;93400.28;5070343;28;20217;-75
2022/10/11 06:28:39;;;;;;;27.77;19.67;;;;;;;13.57;89.15;93416.16;5070366;28;20263;-75
2022/10/11 06:31:05;;;;;;;22.87;20.23;;;;;;;13.46;89.19;93419.97;5071159;28;20186;-74
2022/10/11 06:33:30;;;;;;;23.77;19.17;;;;;;;13.40;89.76;93420.28;5070066;28;20240;-75
2022/10/11 06:35:58;;;;;;;22.43;18.70;;;;;;;13.41;89.91;93417.38;5071381;28;20201;-75
2022/10/11 06:38:23;;;;;;;19.67;17.50;;;;;;;13.48;88.75;93417.84;5069539;28;20237;-75
2022/10/11 06:40:48;;;;;;;21.47;18.33;;;;;;;13.41;89.35;93427.88;5070283;28;20198;-75
2022/10/11 06:43:14;;;;;;;24.13;18.87;;;;;;;13.49;89.13;93432.53;5070809;28;20237;-75
2022/10/11 06:45:39;;;;;;;22.17;18.17;;;;;;;13.57;88.87;93442.41;5071193;28;20197;-76
2022/10/11 06:48:05;;;;;;;20.67;17.20;;;;;;;13.49;89.27;93445.66;5070603;28;20225;-77
2022/10/11 06:50:31;;;;;;;22.17;17.33;;;;;;;13.48;88.99;93444.06;5071238;28;20185;-76
2022/10/11 06:52:57;;;;;;;20.23;17.43;;;;;;;13.58;88.42;93441.38;5070267;28;20257;-76
2022/10/11 06:55:23;;;;;;;23.13;18.50;;;;;;;13.44;88.26;93411.59;5071209;28;21681;-76
2022/10/11 06:57:48;;;;;;;17.70;15.90;;;;;;;13.90;86.92;93459.19;5070275;28;20207;-76
2022/10/11 07:00:14;;;;;;;23.07;16.53;;;;;;;13.98;86.07;93448.84;5070963;28;20200;-75
2022/10/11 07:02:40;;;;;;;21.03;17.43;;;;;;;13.97;86.51;93454.38;5070886;28;20201;-75
2022/10/11 07:05:06;;;;;;;21.13;17.77;;;;;;;14.16;85.71;93450.75;5071102;28;20193;-76
2022/10/11 07:07:31;;;;;;;24.93;16.97;;;;;;;14.18;85.38;93438.13;5071058;28;20217;-76
2022/10/11 07:09:56;;;;;;;24.03;18.47;;;;;;;14.01;85.29;93410.75;5069717;28;20225;-75
2022/10/11 07:12:22;;;;;;;49.83;25.83;;;;;;;14.05;85.52;93435.41;5071025;28;20185;-75
2022/10/11 07:14:47;;;;;;;30.77;20.30;;;;;;;13.84;86.69;93431.41;5070575;28;20221;-76
2022/10/11 07:17:12;;;;;;;24.97;18.43;;;;;;;13.69;87.34;93428.94;5070595;28;20193;-76
2022/10/11 07:19:38;;;;;;;24.53;17.30;;;;;;;13.77;87.98;93447.50;5070545;28;20225;-75
2022/10/11 07:22:03;;;;;;;23.07;18.90;;;;;;;13.67;88.42;93431.03;5067374;28;20181;-75
2022/10/11 07:24:28;;;;;;;23.33;18.47;;;;;;;14.04;87.12;93457.44;5068461;28;20787;-76
2022/10/11 07:26:54;;;;;;;22.93;19.03;;;;;;;14.07;86.51;93452.41;5068741;28;20753;-75
2022/10/11 07:29:20;;;;;;;20.47;17.23;;;;;;;14.04;86.24;93452.97;5054934;28;20257;-75
2022/10/11 07:31:45;;;;;;;21.60;17.77;;;;;;;13.92;86.47;93430.78;5048349;28;20210;-76
2022/10/11 07:34:10;;;;;;;23.43;18.57;;;;;;;14.02;86.46;93441.97;5044351;28;20222;-74
2022/10/11 07:36:36;;;;;;;25.03;18.13;;;;;;;13.86;86.25;93416.16;5042925;28;20249;-74
2022/10/11 07:39:04;;;;;;;21.77;17.03;;;;;;;14.12;86.01;93448.97;5040416;28;20234;-74
2022/10/11 07:41:29;;;;;;;21.13;16.70;;;;;;;14.31;85.88;93453.25;5042697;28;20256;-74
2022/10/11 07:43:54;;;;;;;19.93;16.53;;;;;;;14.29;85.21;93433.56;5058433;28;20237;-77
2022/10/11 07:46:20;;;;;;;20.03;17.93;;;;;;;14.44;85.36;93447.28;5069468;28;20185;-75
2022/10/11 07:48:45;;;;;;;21.43;17.07;;;;;;;14.18;85.73;93424.19;5068060;28;20290;-77
2022/10/11 07:51:17;;;;;;;22.27;17.63;;;;;;;14.51;85.35;93448.84;5068360;28;20185;-76
2022/10/11 07:53:49;;;;;;;30.90;17.43;;;;;;;14.27;87.79;93446.22;5068521;28;20221;-74
2022/10/11 07:56:18;;;;;;;27.87;19.70;;;;;;;14.00;89.36;93454.63;5069255;28;20183;-74
2022/10/11 07:58:43;;;;;;;24.77;18.67;;;;;;;14.16;91.00;93440.25;5068965;28;20229;-74
2022/10/11 08:01:10;;;;;;;21.90;19.00;;;;;;;14.08;88.11;93454.00;5068775;28;20200;-75
2022/10/11 08:03:36;;;;;;;24.07;18.17;;;;;;;13.91;87.84;93437.13;5068095;28;20240;-75
2022/10/11 08:06:04;;;;;;;26.43;20.13;;;;;;;14.05;88.46;93446.69;5068134;28;20715;-75
2022/10/11 08:08:30;;;;;;;23.33;17.43;;;;;;;14.08;87.63;93426.97;5068976;28;20245;-75
2022/10/11 08:10:56;;;;;;;23.37;18.00;;;;;;;14.21;86.95;93445.44;5068280;28;20201;-74
2022/10/11 08:13:21;;;;;;;23.87;18.63;;;;;;;14.30;85.99;93441.16;5068463;28;20288;-75
2022/10/11 08:15:46;;;;;;;21.53;18.00;;;;;;;14.88;84.46;93454.13;5067643;28;20198;-74
2022/10/11 08:18:12;;;;;;;27.27;19.17;;;;;;;14.78;84.10;93444.53;5066638;28;20237;-75
2022/10/11 08:20:38;;;;;;;22.07;17.67;;;;;;;14.38;84.85;93469.44;5068782;28;20200;-75
2022/10/11 08:23:04;;;;;;;22.47;19.37;;;;;;;14.39;85.29;93465.78;5063407;28;20245;-75
2022/10/11 08:25:29;;;;;;;28.73;18.53;;;;;;;15.03;83.46;93461.78;5047476;28;20182;-74
2022/10/11 08:27:55;;;;;;;22.53;17.30;;;;;;;15.38;81.92;93459.44;5047195;28;20238;-74
2022/10/11 08:30:20;;;;;;;21.77;18.47;;;;;;;15.53;80.18;93463.72;5048093;28;20186;-75
2022/10/11 08:32:46;;;;;;;25.33;19.17;;;;;;;15.70;78.88;93464.72;5048389;28;20198;-75
2022/10/11 08:35:11;;;;;;;23.00;17.73;;;;;;;15.92;78.02;93464.13;5048591;28;20185;-75
2022/10/11 08:37:37;;;;;;;20.60;18.00;;;;;;;15.87;78.05;93472.88;5048601;28;20261;-77
2022/10/11 08:40:04;;;;;;;22.60;16.77;;;;;;;15.87;78.10;93469.47;5068619;28;20174;-74
2022/10/11 08:42:35;;;;;;;21.60;17.10;;;;;;;16.09;77.16;93469.59;5068492;28;20198;-75
2022/10/11 08:45:09;;;;;;;21.83;17.73;;;;;;;16.31;76.45;93474.22;5066747;28;20243;-75
2022/10/11 08:47:41;;;;;;;18.80;16.90;;;;;;;16.12;76.49;93461.13;5067043;28;20208;-76
2022/10/11 08:50:19;;;;;;;18.43;16.37;;;;;;;16.33;75.17;93472.84;5067671;28;20197;-75
2022/10/11 08:52:56;;;;;;;24.10;17.67;;;;;;;15.90;76.30;93458.34;5066744;28;20185;-75
2022/10/11 08:55:38;;;;;;;18.43;16.13;;;;;;;16.02;76.68;93474.47;5067527;28;20181;-75
2022/10/11 08:58:04;;;;;;;24.43;17.60;;;;;;;16.09;76.00;93456.44;5067286;28;20904;-75
2022/10/11 09:00:32;;;;;;;20.40;16.43;;;;;;;16.37;75.38;93471.19;5068278;28;20209;-74
2022/10/11 09:03:19;;;;;;;22.97;18.10;;;;;;;16.48;75.05;93474.44;5067649;28;20248;-75
2022/10/11 09:06:06;;;;;;;20.40;16.60;;;;;;;16.25;75.87;93475.38;5067348;28;20193;-74
2022/10/11 09:09:06;;;;;;;25.00;19.30;;;;;;;16.19;76.26;93472.03;5067370;28;20243;-75
2022/10/11 09:12:02;;;;;;;21.60;17.57;;;;;;;16.39;75.70;93471.66;5062451;28;20220;-75
2022/10/11 09:15:15;;;;;;;19.80;17.03;;;;;;;16.45;75.06;93469.75;5067165;28;20221;-75
2022/10/11 09:17:41;;;;;;;23.90;17.43;;;;;;;16.43;75.85;93466.59;5047721;28;20208;-75
2022/10/11 09:20:09;;;;;;;20.40;17.63;;;;;;;16.54;75.03;93463.50;5067313;28;20177;-75
2022/10/11 09:22:50;;;;;;;25.13;18.63;;;;;;;16.60;75.27;93461.53;5067248;28;20201;-76
2022/10/11 09:25:23;;;;;;;19.57;16.60;;;;;;;16.71;73.61;93468.97;5068110;28;20218;-76
2022/10/11 09:28:09;;;;;;;21.37;18.30;;;;;;;16.56;74.75;93461.34;5064757;28;20224;-75
2022/10/11 09:30:38;;;;;;;18.63;16.67;;;;;;;16.58;73.45;93446.00;5047105;28;20190;-75
2022/10/11 09:33:12;;;;;;;25.10;16.27;;;;;;;16.61;73.35;93463.88;5046032;28;20234;-75
2022/10/11 09:35:45;;;;;;;20.50;17.10;;;;;;;16.11;74.76;93432.44;5040312;28;20206;-74
2022/10/11 09:38:31;;;;;;;21.10;17.87;;;;;;;16.32;74.92;93460.75;5045441;28;20240;-74
2022/10/11 09:41:02;;;;;;;19.93;16.63;;;;;;;16.39;74.82;93460.34;5068044;28;20189;-74
2022/10/11 09:43:28;;;;;;;18.93;16.87;;;;;;;16.57;74.28;93462.91;5066533;28;20240;-73
2022/10/11 09:45:53;;;;;;;22.27;16.87;;;;;;;16.83;72.80;93450.78;5067991;28;20254;-74
2022/10/11 09:48:23;;;;;;;22.63;18.43;;;;;;;16.93;73.06;93447.94;5067256;28;20229;-74
2022/10/11 09:50:51;;;;;;;22.13;17.77;;;;;;;16.97;72.32;93450.75;5066737;28;20192;-75
2022/10/11 09:53:18;;;;;;;22.27;17.73;;;;;;;16.99;72.82;93454.66;5066422;28;20298;-75
2022/10/11 09:55:50;;;;;;;21.83;16.53;;;;;;;17.27;71.70;93445.59;5066584;28;20186;-75
2022/10/11 09:58:32;;;;;;;20.43;15.90;;;;;;;17.17;70.91;93440.53;5095048;28;20229;-75
2022/10/11 10:01:10;;;;;;;21.33;16.60;;;;;;;17.10;71.11;93450.72;5066436;28;20277;-74
2022/10/11 10:03:38;;;;;;;18.17;15.87;;;;;;;17.22;71.47;93437.78;5070699;28;20352;-74
2022/10/11 10:06:08;;;;;;;19.17;16.90;;;;;;;17.25;70.75;93439.81;5071388;28;20189;-75
2022/10/11 10:08:34;;;;;;;19.83;16.67;;;;;;;17.36;71.09;93441.16;5070730;28;20233;-73
2022/10/11 10:11:01;;;;;;;20.93;17.07;;;;;;;17.50;70.31;93441.13;5069277;28;20193;-74
2022/10/11 10:13:36;;;;;;;23.50;18.67;;;;;;;17.82;69.21;93453.28;5070962;28;20289;-74
2022/10/11 10:16:02;;;;;;;19.70;16.60;;;;;;;17.35;70.11;93417.69;5070231;28;20184;-75
2022/10/11 10:18:30;;;;;;;19.23;17.07;;;;;;;17.49;68.34;93448.25;5070444;28;20252;-75
2022/10/11 10:21:00;;;;;;;20.33;17.10;;;;;;;16.95;70.05;93422.03;5071217;28;20212;-72
2022/10/11 10:23:35;;;;;;;22.60;19.27;;;;;;;16.85;71.91;93419.63;5070224;28;20236;-75
2022/10/11 10:26:19;;;;;;;20.17;17.27;;;;;;;17.22;70.70;93421.94;5069033;28;20196;-75
2022/10/11 10:29:07;;;;;;;22.73;17.40;;;;;;;17.34;71.08;93434.59;5069874;28;20225;-75
2022/10/11 10:31:53;;;;;;;25.00;17.63;;;;;;;16.97;73.33;93417.22;5056990;28;20198;-73
2022/10/11 10:34:57;;;;;;;20.07;17.23;;;;;;;17.51;71.60;93435.53;5070530;28;20237;-71
2022/10/11 10:37:34;;;;;;;20.60;17.27;;;;;;;17.55;71.16;93431.22;5070309;28;20197;-72
2022/10/11 10:40:06;;;;;;;20.27;17.63;;;;;;;17.28;71.12;93420.75;5050229;28;20213;-71
2022/10/11 10:42:31;;;;;;;30.07;18.33;;;;;;;17.46;71.09;93421.69;5050098;28;20752;-79
2022/10/11 10:44:58;;;;;;;25.40;18.83;;;;;;;17.39;71.49;93424.72;5042392;28;20916;-75
2022/10/11 10:47:48;;;;;;;20.00;17.03;;;;;;;17.14;72.93;93422.66;5044283;28;20210;-74
2022/10/11 10:50:21;;;;;;;19.90;17.07;;;;;;;17.60;70.55;93420.53;5048051;28;20329;-74
2022/10/11 10:53:19;;;;;;;24.07;17.97;;;;;;;17.18;73.02;93407.78;5050094;28;20226;-75
2022/10/11 10:55:51;;;;;;;21.13;17.60;;;;;;;17.36;71.49;93414.75;5049937;28;20230;-75
2022/10/11 10:58:24;;;;;;;21.03;17.73;;;;;;;16.95;75.11;93406.19;5049503;28;20233;-76
2022/10/11 11:00:54;;;;;;;19.80;17.50;;;;;;;16.65;73.70;93354.13;5050213;28;20715;-74
2022/10/11 11:03:22;;;;;;;23.40;16.90;;;;;;;17.14;72.93;93398.91;5057113;28;20271;-75
2022/10/11 11:06:07;;;;;;;21.17;17.63;;;;;;;16.99;72.97;93396.63;5070429;28;20189;-75
2022/10/11 11:08:55;;;;;;;21.50;16.70;;;;;;;17.15;71.50;93397.81;5068538;28;20247;-75
2022/10/11 11:11:37;;;;;;;19.60;16.47;;;;;;;16.99;72.09;93391.34;5065522;28;20204;-75
2022/10/11 11:14:20;;;;;;;19.47;17.07;;;;;;;17.11;72.07;93393.44;5054753;28;20280;-70
2022/10/11 11:17:11;;;;;;;22.37;18.00;;;;;;;17.03;72.35;93402.06;5048869;28;20218;-74
2022/10/11 11:20:12;;;;;;;20.13;16.50;;;;;;;16.89;72.04;93381.00;5065987;28;20229;-73
2022/10/11 11:22:49;;;;;;;20.60;18.07;;;;;;;17.06;72.47;93386.41;5049918;28;20244;-73
2022/10/11 11:26:03;;;;;;;19.90;16.87;;;;;;;17.28;71.79;93399.63;5067799;28;20176;-73
2022/10/11 11:28:44;;;;;;;22.63;18.00;;;;;;;17.40;72.51;93386.66;5056400;28;20712;-74
2022/10/11 11:31:09;;;;;;;22.17;17.40;;;;;;;17.62;71.74;93391.16;5068780;28;20210;-73